sensor_id;sensor_type;location;lat;lon;timestamp;P1;durP1;ratioP1;P2;durP2;ratioP2
21432;SDS011;18592;49.708;10.900;2023-01-01T00:01:05;20.05;;;14.68;;
21432;SDS011;18592;49.708;10.900;2023-01-01T00:03:07;19.42;;;15.05;;
21432;SDS011;18592;49.708;10.900;2023-01-01T00:05:09;21.27;;;13.85;;
21432;SDS011;18592;49.708;10.900;2023-01-01T00:07:11;17.60;;;14.02;;
21432;SDS011;18592;49.708;10.900;2023-01-01T00:09:14;19.05;;;14.32;;
21432;SDS011;18592;49.708;10.900;2023-01-01T00:11:35;16.50;;;13.77;;
21432;SDS011;18592;49.708;10.900;2023-01-01T00:13:41;17.88;;;14.25;;
21432;SDS011;18592;49.708;10.900;2023-01-01T00:15:44;19.48;;;14.93;;
21432;SDS011;18592;49.708;10.900;2023-01-01T00:17:46;18.00;;;15.07;;
21432;SDS011;18592;49.708;10.900;2023-01-01T00:19:48;17.10;;;14.00;;
21432;SDS011;18592;49.708;10.900;2023-01-01T00:21:50;16.55;;;13.60;;
21432;SDS011;18592;49.708;10.900;2023-01-01T00:23:54;18.35;;;14.07;;
21432;SDS011;18592;49.708;10.900;2023-01-01T00:25:56;19.48;;;14.18;;
21432;SDS011;18592;49.708;10.900;2023-01-01T00:28:02;17.58;;;13.63;;
21432;SDS011;18592;49.708;10.900;2023-01-01T00:30:04;17.52;;;14.02;;
21432;SDS011;18592;49.708;10.900;2023-01-01T00:32:06;17.05;;;13.93;;
21432;SDS011;18592;49.708;10.900;2023-01-01T00:34:12;17.75;;;13.75;;
21432;SDS011;18592;49.708;10.900;2023-01-01T00:36:14;17.98;;;14.27;;
21432;SDS011;18592;49.708;10.900;2023-01-01T00:38:16;18.05;;;14.00;;
21432;SDS011;18592;49.708;10.900;2023-01-01T00:40:18;17.88;;;13.82;;
21432;SDS011;18592;49.708;10.900;2023-01-01T00:42:20;17.45;;;13.80;;
21432;SDS011;18592;49.708;10.900;2023-01-01T00:44:22;20.63;;;14.07;;
21432;SDS011;18592;49.708;10.900;2023-01-01T00:46:23;19.92;;;15.25;;
21432;SDS011;18592;49.708;10.900;2023-01-01T00:48:25;19.63;;;15.57;;
21432;SDS011;18592;49.708;10.900;2023-01-01T00:50:27;21.85;;;15.07;;
21432;SDS011;18592;49.708;10.900;2023-01-01T00:52:29;19.63;;;15.40;;
21432;SDS011;18592;49.708;10.900;2023-01-01T00:54:30;21.05;;;16.00;;
21432;SDS011;18592;49.708;10.900;2023-01-01T00:56:32;21.75;;;16.45;;
21432;SDS011;18592;49.708;10.900;2023-01-01T00:58:33;21.15;;;16.10;;
21432;SDS011;18592;49.708;10.900;2023-01-01T01:00:36;17.40;;;13.65;;
21432;SDS011;18592;49.708;10.900;2023-01-01T01:02:38;20.38;;;14.65;;
21432;SDS011;18592;49.708;10.900;2023-01-01T01:04:40;19.88;;;15.05;;
21432;SDS011;18592;49.708;10.900;2023-01-01T01:06:42;19.45;;;14.88;;
21432;SDS011;18592;49.708;10.900;2023-01-01T01:08:45;17.48;;;13.80;;
21432;SDS011;18592;49.708;10.900;2023-01-01T01:10:50;18.25;;;14.65;;
21432;SDS011;18592;49.708;10.900;2023-01-01T01:12:55;21.05;;;14.00;;
21432;SDS011;18592;49.708;10.900;2023-01-01T01:14:57;18.63;;;13.65;;
21432;SDS011;18592;49.708;10.900;2023-01-01T01:17:04;16.95;;;12.98;;
21432;SDS011;18592;49.708;10.900;2023-01-01T01:19:06;17.85;;;13.20;;
21432;SDS011;18592;49.708;10.900;2023-01-01T01:21:07;17.98;;;13.45;;
21432;SDS011;18592;49.708;10.900;2023-01-01T01:23:15;18.85;;;13.15;;
21432;SDS011;18592;49.708;10.900;2023-01-01T01:25:17;18.45;;;13.20;;
21432;SDS011;18592;49.708;10.900;2023-01-01T01:27:19;15.95;;;13.13;;
21432;SDS011;18592;49.708;10.900;2023-01-01T01:29:20;16.42;;;13.00;;
21432;SDS011;18592;49.708;10.900;2023-01-01T01:31:26;17.52;;;14.27;;
21432;SDS011;18592;49.708;10.900;2023-01-01T01:33:31;16.75;;;13.32;;
21432;SDS011;18592;49.708;10.900;2023-01-01T01:35:33;18.67;;;14.13;;
21432;SDS011;18592;49.708;10.900;2023-01-01T01:37:36;20.05;;;15.15;;
21432;SDS011;18592;49.708;10.900;2023-01-01T01:39:37;19.63;;;15.10;;
21432;SDS011;18592;49.708;10.900;2023-01-01T01:41:42;24.15;;;17.73;;
21432;SDS011;18592;49.708;10.900;2023-01-01T01:43:45;25.10;;;17.38;;
21432;SDS011;18592;49.708;10.900;2023-01-01T01:46:17;23.63;;;18.67;;
21432;SDS011;18592;49.708;10.900;2023-01-01T01:48:22;25.88;;;18.60;;
21432;SDS011;18592;49.708;10.900;2023-01-01T01:50:27;25.58;;;20.02;;
21432;SDS011;18592;49.708;10.900;2023-01-01T01:52:39;27.40;;;19.83;;
21432;SDS011;18592;49.708;10.900;2023-01-01T01:54:47;24.70;;;19.13;;
21432;SDS011;18592;49.708;10.900;2023-01-01T01:58:54;26.20;;;21.02;;
21432;SDS011;18592;49.708;10.900;2023-01-01T02:00:56;26.17;;;19.75;;
21432;SDS011;18592;49.708;10.900;2023-01-01T02:03:00;27.08;;;20.48;;
21432;SDS011;18592;49.708;10.900;2023-01-01T02:05:05;29.85;;;21.27;;
21432;SDS011;18592;49.708;10.900;2023-01-01T02:07:08;27.70;;;20.25;;
21432;SDS011;18592;49.708;10.900;2023-01-01T02:09:14;31.52;;;22.48;;
21432;SDS011;18592;49.708;10.900;2023-01-01T02:11:20;31.58;;;22.85;;
21432;SDS011;18592;49.708;10.900;2023-01-01T02:13:22;27.30;;;21.40;;
21432;SDS011;18592;49.708;10.900;2023-01-01T02:15:26;30.23;;;22.92;;
21432;SDS011;18592;49.708;10.900;2023-01-01T02:17:34;30.92;;;22.70;;
21432;SDS011;18592;49.708;10.900;2023-01-01T02:19:57;29.20;;;22.83;;
21432;SDS011;18592;49.708;10.900;2023-01-01T02:29:55;31.15;;;23.48;;
21432;SDS011;18592;49.708;10.900;2023-01-01T02:31:49;35.70;;;25.38;;
21432;SDS011;18592;49.708;10.900;2023-01-01T02:34:00;30.55;;;23.73;;
21432;SDS011;18592;49.708;10.900;2023-01-01T02:36:09;30.23;;;23.77;;
21432;SDS011;18592;49.708;10.900;2023-01-01T02:38:17;34.10;;;24.92;;
21432;SDS011;18592;49.708;10.900;2023-01-01T02:40:24;33.35;;;24.20;;
21432;SDS011;18592;49.708;10.900;2023-01-01T02:42:28;31.48;;;23.13;;
21432;SDS011;18592;49.708;10.900;2023-01-01T02:44:31;28.85;;;22.17;;
21432;SDS011;18592;49.708;10.900;2023-01-01T02:46:39;29.23;;;21.75;;
21432;SDS011;18592;49.708;10.900;2023-01-01T02:48:49;29.05;;;21.35;;
21432;SDS011;18592;49.708;10.900;2023-01-01T02:50:53;27.10;;;21.50;;
21432;SDS011;18592;49.708;10.900;2023-01-01T02:53:05;27.83;;;21.48;;
21432;SDS011;18592;49.708;10.900;2023-01-01T02:58:16;32.95;;;22.88;;
21432;SDS011;18592;49.708;10.900;2023-01-01T03:00:53;34.20;;;24.08;;
21432;SDS011;18592;49.708;10.900;2023-01-01T03:08:24;29.02;;;21.80;;
21432;SDS011;18592;49.708;10.900;2023-01-01T03:10:47;30.02;;;20.42;;
21432;SDS011;18592;49.708;10.900;2023-01-01T03:15:47;28.63;;;20.45;;
21432;SDS011;18592;49.708;10.900;2023-01-01T03:17:56;27.73;;;20.48;;
21432;SDS011;18592;49.708;10.900;2023-01-01T03:20:27;30.02;;;21.63;;
21432;SDS011;18592;49.708;10.900;2023-01-01T03:22:34;28.05;;;22.17;;
21432;SDS011;18592;49.708;10.900;2023-01-01T03:24:51;32.25;;;22.33;;
21432;SDS011;18592;49.708;10.900;2023-01-01T03:26:57;29.52;;;21.63;;
21432;SDS011;18592;49.708;10.900;2023-01-01T03:29:03;28.83;;;21.20;;
21432;SDS011;18592;49.708;10.900;2023-01-01T03:31:06;29.08;;;20.83;;
21432;SDS011;18592;49.708;10.900;2023-01-01T03:33:11;23.73;;;18.45;;
21432;SDS011;18592;49.708;10.900;2023-01-01T03:35:19;25.70;;;19.67;;
21432;SDS011;18592;49.708;10.900;2023-01-01T03:37:25;26.13;;;18.92;;
21432;SDS011;18592;49.708;10.900;2023-01-01T03:39:30;25.45;;;18.55;;
21432;SDS011;18592;49.708;10.900;2023-01-01T03:41:42;24.30;;;18.33;;
21432;SDS011;18592;49.708;10.900;2023-01-01T03:43:55;24.08;;;18.17;;
21432;SDS011;18592;49.708;10.900;2023-01-01T03:46:16;25.10;;;17.60;;
21432;SDS011;18592;49.708;10.900;2023-01-01T03:48:22;21.45;;;16.00;;
21432;SDS011;18592;49.708;10.900;2023-01-01T03:50:26;22.50;;;16.42;;
21432;SDS011;18592;49.708;10.900;2023-01-01T03:54:51;21.33;;;15.52;;
21432;SDS011;18592;49.708;10.900;2023-01-01T03:57:48;22.05;;;16.20;;
21432;SDS011;18592;49.708;10.900;2023-01-01T04:00:10;21.70;;;15.30;;
21432;SDS011;18592;49.708;10.900;2023-01-01T04:02:17;21.13;;;15.98;;
21432;SDS011;18592;49.708;10.900;2023-01-01T04:04:24;20.27;;;15.90;;
21432;SDS011;18592;49.708;10.900;2023-01-01T04:06:27;21.27;;;16.05;;
21432;SDS011;18592;49.708;10.900;2023-01-01T04:08:32;21.58;;;15.98;;
21432;SDS011;18592;49.708;10.900;2023-01-01T04:10:36;19.45;;;14.95;;
21432;SDS011;18592;49.708;10.900;2023-01-01T04:12:51;20.98;;;15.00;;
21432;SDS011;18592;49.708;10.900;2023-01-01T04:14:56;21.27;;;15.85;;
21432;SDS011;18592;49.708;10.900;2023-01-01T04:16:57;20.35;;;15.30;;
21432;SDS011;18592;49.708;10.900;2023-01-01T04:19:00;19.38;;;14.63;;
21432;SDS011;18592;49.708;10.900;2023-01-01T04:21:01;20.85;;;14.88;;
21432;SDS011;18592;49.708;10.900;2023-01-01T04:23:04;21.40;;;15.27;;
21432;SDS011;18592;49.708;10.900;2023-01-01T04:25:06;20.80;;;14.95;;
21432;SDS011;18592;49.708;10.900;2023-01-01T04:27:08;20.15;;;14.82;;
21432;SDS011;18592;49.708;10.900;2023-01-01T04:29:10;18.75;;;14.57;;
21432;SDS011;18592;49.708;10.900;2023-01-01T04:31:11;20.85;;;14.90;;
21432;SDS011;18592;49.708;10.900;2023-01-01T04:33:19;19.58;;;14.45;;
21432;SDS011;18592;49.708;10.900;2023-01-01T04:35:22;20.58;;;15.18;;
21432;SDS011;18592;49.708;10.900;2023-01-01T04:37:26;20.50;;;15.27;;
21432;SDS011;18592;49.708;10.900;2023-01-01T04:39:28;21.13;;;16.10;;
21432;SDS011;18592;49.708;10.900;2023-01-01T04:41:30;18.73;;;15.07;;
21432;SDS011;18592;49.708;10.900;2023-01-01T04:43:32;19.50;;;14.90;;
21432;SDS011;18592;49.708;10.900;2023-01-01T04:45:34;20.80;;;15.40;;
21432;SDS011;18592;49.708;10.900;2023-01-01T04:47:38;20.67;;;15.45;;
21432;SDS011;18592;49.708;10.900;2023-01-01T04:49:40;20.98;;;16.15;;
21432;SDS011;18592;49.708;10.900;2023-01-01T04:51:44;20.33;;;15.93;;
21432;SDS011;18592;49.708;10.900;2023-01-01T04:53:46;18.90;;;14.88;;
21432;SDS011;18592;49.708;10.900;2023-01-01T04:55:48;20.95;;;15.93;;
21432;SDS011;18592;49.708;10.900;2023-01-01T04:57:51;18.13;;;14.50;;
21432;SDS011;18592;49.708;10.900;2023-01-01T04:59:52;21.13;;;14.73;;
21432;SDS011;18592;49.708;10.900;2023-01-01T05:01:54;18.00;;;13.40;;
21432;SDS011;18592;49.708;10.900;2023-01-01T05:03:59;20.35;;;15.23;;
21432;SDS011;18592;49.708;10.900;2023-01-01T05:06:11;19.15;;;14.02;;
21432;SDS011;18592;49.708;10.900;2023-01-01T05:08:13;19.50;;;14.10;;
21432;SDS011;18592;49.708;10.900;2023-01-01T05:10:15;18.48;;;14.18;;
21432;SDS011;18592;49.708;10.900;2023-01-01T05:12:19;18.30;;;13.98;;
21432;SDS011;18592;49.708;10.900;2023-01-01T05:14:26;19.42;;;13.88;;
21432;SDS011;18592;49.708;10.900;2023-01-01T05:16:29;17.83;;;12.88;;
21432;SDS011;18592;49.708;10.900;2023-01-01T05:18:36;20.45;;;14.32;;
21432;SDS011;18592;49.708;10.900;2023-01-01T05:20:38;20.23;;;15.30;;
21432;SDS011;18592;49.708;10.900;2023-01-01T05:22:45;20.85;;;14.35;;
21432;SDS011;18592;49.708;10.900;2023-01-01T05:24:50;17.88;;;13.93;;
21432;SDS011;18592;49.708;10.900;2023-01-01T05:26:54;22.80;;;14.85;;
21432;SDS011;18592;49.708;10.900;2023-01-01T05:28:57;20.80;;;14.48;;
21432;SDS011;18592;49.708;10.900;2023-01-01T05:31:03;20.15;;;14.45;;
21432;SDS011;18592;49.708;10.900;2023-01-01T05:33:05;19.77;;;14.23;;
21432;SDS011;18592;49.708;10.900;2023-01-01T05:35:07;21.08;;;14.52;;
21432;SDS011;18592;49.708;10.900;2023-01-01T05:37:09;21.42;;;14.65;;
21432;SDS011;18592;49.708;10.900;2023-01-01T05:39:11;18.95;;;14.15;;
21432;SDS011;18592;49.708;10.900;2023-01-01T05:41:14;19.58;;;13.95;;
21432;SDS011;18592;49.708;10.900;2023-01-01T05:43:16;18.33;;;13.93;;
21432;SDS011;18592;49.708;10.900;2023-01-01T05:45:18;19.23;;;12.25;;
21432;SDS011;18592;49.708;10.900;2023-01-01T05:47:20;13.98;;;10.70;;
21432;SDS011;18592;49.708;10.900;2023-01-01T05:49:22;13.52;;;9.95;;
21432;SDS011;18592;49.708;10.900;2023-01-01T05:51:28;14.10;;;9.75;;
21432;SDS011;18592;49.708;10.900;2023-01-01T05:53:31;12.00;;;8.30;;
21432;SDS011;18592;49.708;10.900;2023-01-01T05:55:33;10.55;;;8.02;;
21432;SDS011;18592;49.708;10.900;2023-01-01T05:57:35;11.77;;;7.70;;
21432;SDS011;18592;49.708;10.900;2023-01-01T05:59:37;10.98;;;7.53;;
21432;SDS011;18592;49.708;10.900;2023-01-01T06:01:38;10.10;;;7.20;;
21432;SDS011;18592;49.708;10.900;2023-01-01T06:03:46;9.15;;;6.65;;
21432;SDS011;18592;49.708;10.900;2023-01-01T06:05:50;7.93;;;6.13;;
21432;SDS011;18592;49.708;10.900;2023-01-01T06:07:57;9.52;;;6.57;;
21432;SDS011;18592;49.708;10.900;2023-01-01T06:09:59;8.77;;;5.97;;
21432;SDS011;18592;49.708;10.900;2023-01-01T06:12:03;7.85;;;6.22;;
21432;SDS011;18592;49.708;10.900;2023-01-01T06:14:05;6.13;;;5.07;;
21432;SDS011;18592;49.708;10.900;2023-01-01T06:16:08;9.63;;;6.93;;
21432;SDS011;18592;49.708;10.900;2023-01-01T06:18:11;7.75;;;5.97;;
21432;SDS011;18592;49.708;10.900;2023-01-01T06:20:13;9.50;;;6.60;;
21432;SDS011;18592;49.708;10.900;2023-01-01T06:22:14;9.68;;;6.13;;
21432;SDS011;18592;49.708;10.900;2023-01-01T06:24:16;7.75;;;5.78;;
21432;SDS011;18592;49.708;10.900;2023-01-01T06:26:21;5.72;;;4.95;;
21432;SDS011;18592;49.708;10.900;2023-01-01T06:28:24;6.32;;;5.03;;
21432;SDS011;18592;49.708;10.900;2023-01-01T06:30:25;7.90;;;4.95;;
21432;SDS011;18592;49.708;10.900;2023-01-01T06:32:27;6.65;;;5.22;;
21432;SDS011;18592;49.708;10.900;2023-01-01T06:34:29;6.35;;;5.20;;
21432;SDS011;18592;49.708;10.900;2023-01-01T06:36:31;8.40;;;6.47;;
21432;SDS011;18592;49.708;10.900;2023-01-01T06:38:33;9.88;;;7.53;;
21432;SDS011;18592;49.708;10.900;2023-01-01T06:40:38;11.18;;;8.15;;
21432;SDS011;18592;49.708;10.900;2023-01-01T06:42:43;11.38;;;8.60;;
21432;SDS011;18592;49.708;10.900;2023-01-01T06:44:45;11.85;;;8.43;;
21432;SDS011;18592;49.708;10.900;2023-01-01T06:46:49;12.25;;;8.98;;
21432;SDS011;18592;49.708;10.900;2023-01-01T06:49:00;10.90;;;8.25;;
21432;SDS011;18592;49.708;10.900;2023-01-01T06:51:07;12.82;;;9.15;;
21432;SDS011;18592;49.708;10.900;2023-01-01T06:53:11;11.35;;;8.55;;
21432;SDS011;18592;49.708;10.900;2023-01-01T06:55:16;12.57;;;8.88;;
21432;SDS011;18592;49.708;10.900;2023-01-01T06:57:18;12.00;;;9.00;;
21432;SDS011;18592;49.708;10.900;2023-01-01T06:59:20;11.00;;;8.25;;
21432;SDS011;18592;49.708;10.900;2023-01-01T07:01:23;10.32;;;8.00;;
21432;SDS011;18592;49.708;10.900;2023-01-01T07:03:36;11.05;;;8.40;;
21432;SDS011;18592;49.708;10.900;2023-01-01T07:05:39;11.15;;;8.90;;
21432;SDS011;18592;49.708;10.900;2023-01-01T07:07:41;12.70;;;9.05;;
21432;SDS011;18592;49.708;10.900;2023-01-01T07:09:43;12.88;;;8.65;;
21432;SDS011;18592;49.708;10.900;2023-01-01T07:11:51;10.27;;;8.15;;
21432;SDS011;18592;49.708;10.900;2023-01-01T07:13:57;10.95;;;8.02;;
21432;SDS011;18592;49.708;10.900;2023-01-01T07:15:58;10.45;;;7.47;;
21432;SDS011;18592;49.708;10.900;2023-01-01T07:18:13;9.55;;;7.22;;
21432;SDS011;18592;49.708;10.900;2023-01-01T07:20:15;10.15;;;6.75;;
21432;SDS011;18592;49.708;10.900;2023-01-01T07:22:17;6.70;;;5.53;;
21432;SDS011;18592;49.708;10.900;2023-01-01T07:24:18;8.15;;;5.50;;
21432;SDS011;18592;49.708;10.900;2023-01-01T07:26:24;6.72;;;5.28;;
21432;SDS011;18592;49.708;10.900;2023-01-01T07:28:27;8.43;;;5.82;;
21432;SDS011;18592;49.708;10.900;2023-01-01T07:30:29;8.05;;;5.30;;
21432;SDS011;18592;49.708;10.900;2023-01-01T07:32:30;8.30;;;5.40;;
21432;SDS011;18592;49.708;10.900;2023-01-01T07:34:32;7.13;;;4.78;;
21432;SDS011;18592;49.708;10.900;2023-01-01T07:36:34;8.63;;;5.50;;
21432;SDS011;18592;49.708;10.900;2023-01-01T07:38:36;6.10;;;4.45;;
21432;SDS011;18592;49.708;10.900;2023-01-01T07:40:37;6.35;;;4.60;;
21432;SDS011;18592;49.708;10.900;2023-01-01T07:42:42;6.47;;;4.53;;
21432;SDS011;18592;49.708;10.900;2023-01-01T07:44:45;6.60;;;4.32;;
21432;SDS011;18592;49.708;10.900;2023-01-01T07:46:46;5.88;;;4.30;;
21432;SDS011;18592;49.708;10.900;2023-01-01T07:48:49;6.72;;;4.78;;
21432;SDS011;18592;49.708;10.900;2023-01-01T07:50:53;6.00;;;4.70;;
21432;SDS011;18592;49.708;10.900;2023-01-01T07:53:04;6.15;;;4.25;;
21432;SDS011;18592;49.708;10.900;2023-01-01T07:55:06;6.97;;;4.72;;
21432;SDS011;18592;49.708;10.900;2023-01-01T07:57:11;6.25;;;4.30;;
21432;SDS011;18592;49.708;10.900;2023-01-01T07:59:13;6.53;;;4.40;;
21432;SDS011;18592;49.708;10.900;2023-01-01T08:01:21;7.05;;;4.93;;
21432;SDS011;18592;49.708;10.900;2023-01-01T08:03:27;6.55;;;4.68;;
21432;SDS011;18592;49.708;10.900;2023-01-01T08:05:32;5.53;;;4.28;;
21432;SDS011;18592;49.708;10.900;2023-01-01T08:07:38;6.88;;;4.78;;
21432;SDS011;18592;49.708;10.900;2023-01-01T08:09:40;6.07;;;4.50;;
21432;SDS011;18592;49.708;10.900;2023-01-01T08:11:41;6.20;;;4.40;;
21432;SDS011;18592;49.708;10.900;2023-01-01T08:13:43;5.53;;;4.22;;
21432;SDS011;18592;49.708;10.900;2023-01-01T08:15:45;7.75;;;4.82;;
21432;SDS011;18592;49.708;10.900;2023-01-01T08:17:46;6.75;;;4.47;;
21432;SDS011;18592;49.708;10.900;2023-01-01T08:19:48;6.10;;;4.35;;
21432;SDS011;18592;49.708;10.900;2023-01-01T08:21:51;6.22;;;4.43;;
21432;SDS011;18592;49.708;10.900;2023-01-01T08:23:53;5.85;;;4.05;;
21432;SDS011;18592;49.708;10.900;2023-01-01T08:26:00;5.07;;;4.15;;
21432;SDS011;18592;49.708;10.900;2023-01-01T08:28:05;5.32;;;4.03;;
21432;SDS011;18592;49.708;10.900;2023-01-01T08:30:07;6.13;;;4.50;;
21432;SDS011;18592;49.708;10.900;2023-01-01T08:32:11;5.63;;;4.35;;
21432;SDS011;18592;49.708;10.900;2023-01-01T08:34:13;5.28;;;4.35;;
21432;SDS011;18592;49.708;10.900;2023-01-01T08:36:15;5.55;;;4.35;;
21432;SDS011;18592;49.708;10.900;2023-01-01T08:38:21;9.20;;;3.80;;
21432;SDS011;18592;49.708;10.900;2023-01-01T08:40:26;6.75;;;4.25;;
21432;SDS011;18592;49.708;10.900;2023-01-01T08:42:27;5.95;;;4.18;;
21432;SDS011;18592;49.708;10.900;2023-01-01T08:44:31;9.15;;;5.55;;
21432;SDS011;18592;49.708;10.900;2023-01-01T08:46:33;9.93;;;6.38;;
21432;SDS011;18592;49.708;10.900;2023-01-01T08:48:36;10.55;;;7.05;;
21432;SDS011;18592;49.708;10.900;2023-01-01T08:50:38;10.10;;;7.32;;
21432;SDS011;18592;49.708;10.900;2023-01-01T08:52:41;9.65;;;7.15;;
21432;SDS011;18592;49.708;10.900;2023-01-01T08:54:43;9.90;;;7.40;;
21432;SDS011;18592;49.708;10.900;2023-01-01T08:56:48;9.25;;;6.50;;
21432;SDS011;18592;49.708;10.900;2023-01-01T08:58:49;9.73;;;7.03;;
21432;SDS011;18592;49.708;10.900;2023-01-01T09:00:52;8.93;;;7.05;;
21432;SDS011;18592;49.708;10.900;2023-01-01T09:02:54;9.35;;;7.20;;
21432;SDS011;18592;49.708;10.900;2023-01-01T09:04:56;8.85;;;6.43;;
21432;SDS011;18592;49.708;10.900;2023-01-01T09:06:57;11.57;;;6.88;;
21432;SDS011;18592;49.708;10.900;2023-01-01T09:09:02;10.05;;;6.80;;
21432;SDS011;18592;49.708;10.900;2023-01-01T09:11:03;8.50;;;6.15;;
21432;SDS011;18592;49.708;10.900;2023-01-01T09:13:05;7.30;;;5.47;;
21432;SDS011;18592;49.708;10.900;2023-01-01T09:15:11;9.52;;;6.72;;
21432;SDS011;18592;49.708;10.900;2023-01-01T09:17:19;9.68;;;7.00;;
21432;SDS011;18592;49.708;10.900;2023-01-01T09:19:21;7.95;;;6.28;;
21432;SDS011;18592;49.708;10.900;2023-01-01T09:21:22;6.93;;;5.72;;
21432;SDS011;18592;49.708;10.900;2023-01-01T09:23:25;7.95;;;6.55;;
21432;SDS011;18592;49.708;10.900;2023-01-01T09:25:27;6.97;;;5.88;;
21432;SDS011;18592;49.708;10.900;2023-01-01T09:27:29;8.93;;;6.25;;
21432;SDS011;18592;49.708;10.900;2023-01-01T09:29:31;8.85;;;6.57;;
21432;SDS011;18592;49.708;10.900;2023-01-01T09:31:36;6.72;;;5.43;;
21432;SDS011;18592;49.708;10.900;2023-01-01T09:33:37;8.70;;;6.45;;
21432;SDS011;18592;49.708;10.900;2023-01-01T09:35:39;8.73;;;6.72;;
21432;SDS011;18592;49.708;10.900;2023-01-01T09:37:44;8.50;;;6.90;;
21432;SDS011;18592;49.708;10.900;2023-01-01T09:39:46;8.93;;;6.95;;
21432;SDS011;18592;49.708;10.900;2023-01-01T09:42:06;9.13;;;7.03;;
21432;SDS011;18592;49.708;10.900;2023-01-01T09:46:48;8.75;;;6.57;;
21432;SDS011;18592;49.708;10.900;2023-01-01T09:48:54;8.20;;;6.50;;
21432;SDS011;18592;49.708;10.900;2023-01-01T09:50:59;7.97;;;5.97;;
21432;SDS011;18592;49.708;10.900;2023-01-01T09:57:41;7.70;;;5.55;;
21432;SDS011;18592;49.708;10.900;2023-01-01T09:59:43;6.03;;;4.63;;
21432;SDS011;18592;49.708;10.900;2023-01-01T10:06:30;6.88;;;5.07;;
21432;SDS011;18592;49.708;10.900;2023-01-01T10:13:24;12.30;;;8.30;;
21432;SDS011;18592;49.708;10.900;2023-01-01T10:15:33;10.68;;;7.63;;
21432;SDS011;18592;49.708;10.900;2023-01-01T10:17:45;12.65;;;8.68;;
21432;SDS011;18592;49.708;10.900;2023-01-01T10:19:51;11.38;;;7.88;;
21432;SDS011;18592;49.708;10.900;2023-01-01T10:22:06;9.73;;;7.18;;
21432;SDS011;18592;49.708;10.900;2023-01-01T10:24:32;9.30;;;7.38;;
21432;SDS011;18592;49.708;10.900;2023-01-01T10:26:47;11.68;;;7.53;;
21432;SDS011;18592;49.708;10.900;2023-01-01T10:28:53;9.43;;;7.03;;
21432;SDS011;18592;49.708;10.900;2023-01-01T10:31:14;10.02;;;7.45;;
21432;SDS011;18592;49.708;10.900;2023-01-01T10:33:26;8.45;;;6.90;;
21432;SDS011;18592;49.708;10.900;2023-01-01T10:35:34;8.65;;;6.40;;
21432;SDS011;18592;49.708;10.900;2023-01-01T10:37:42;7.45;;;6.13;;
21432;SDS011;18592;49.708;10.900;2023-01-01T10:39:45;7.18;;;5.55;;
21432;SDS011;18592;49.708;10.900;2023-01-01T10:41:48;7.20;;;5.38;;
21432;SDS011;18592;49.708;10.900;2023-01-01T10:43:50;7.20;;;5.03;;
21432;SDS011;18592;49.708;10.900;2023-01-01T10:45:52;5.30;;;4.28;;
21432;SDS011;18592;49.708;10.900;2023-01-01T10:50:19;6.40;;;4.35;;
21432;SDS011;18592;49.708;10.900;2023-01-01T10:52:28;6.68;;;4.18;;
21432;SDS011;18592;49.708;10.900;2023-01-01T10:54:35;5.68;;;4.38;;
21432;SDS011;18592;49.708;10.900;2023-01-01T10:56:41;5.80;;;4.22;;
21432;SDS011;18592;49.708;10.900;2023-01-01T10:58:47;5.00;;;3.65;;
21432;SDS011;18592;49.708;10.900;2023-01-01T11:00:58;8.27;;;4.55;;
21432;SDS011;18592;49.708;10.900;2023-01-01T11:05:17;5.13;;;3.72;;
21432;SDS011;18592;49.708;10.900;2023-01-01T11:07:30;4.68;;;3.80;;
21432;SDS011;18592;49.708;10.900;2023-01-01T11:09:35;6.53;;;3.88;;
21432;SDS011;18592;49.708;10.900;2023-01-01T11:11:44;5.22;;;3.33;;
21432;SDS011;18592;49.708;10.900;2023-01-01T11:13:50;5.55;;;3.22;;
21432;SDS011;18592;49.708;10.900;2023-01-01T11:15:54;5.60;;;3.55;;
21432;SDS011;18592;49.708;10.900;2023-01-01T11:18:09;5.15;;;3.60;;
21432;SDS011;18592;49.708;10.900;2023-01-01T11:20:15;5.95;;;3.63;;
21432;SDS011;18592;49.708;10.900;2023-01-01T11:22:34;5.03;;;3.28;;
21432;SDS011;18592;49.708;10.900;2023-01-01T11:24:37;5.68;;;3.72;;
21432;SDS011;18592;49.708;10.900;2023-01-01T11:26:39;4.72;;;3.08;;
21432;SDS011;18592;49.708;10.900;2023-01-01T11:28:41;6.30;;;3.55;;
21432;SDS011;18592;49.708;10.900;2023-01-01T11:33:13;3.90;;;3.20;;
21432;SDS011;18592;49.708;10.900;2023-01-01T11:35:20;3.72;;;2.70;;
21432;SDS011;18592;49.708;10.900;2023-01-01T11:39:33;4.47;;;3.22;;
21432;SDS011;18592;49.708;10.900;2023-01-01T11:41:46;3.15;;;2.40;;
21432;SDS011;18592;49.708;10.900;2023-01-01T11:43:52;5.80;;;3.28;;
21432;SDS011;18592;49.708;10.900;2023-01-01T11:45:54;5.00;;;3.20;;
21432;SDS011;18592;49.708;10.900;2023-01-01T11:47:58;3.92;;;2.80;;
21432;SDS011;18592;49.708;10.900;2023-01-01T11:52:28;4.43;;;3.00;;
21432;SDS011;18592;49.708;10.900;2023-01-01T11:54:36;3.92;;;2.72;;
21432;SDS011;18592;49.708;10.900;2023-01-01T11:56:38;4.82;;;2.90;;
21432;SDS011;18592;49.708;10.900;2023-01-01T11:58:53;5.20;;;3.00;;
21432;SDS011;18592;49.708;10.900;2023-01-01T12:00:59;3.95;;;2.70;;
21432;SDS011;18592;49.708;10.900;2023-01-01T12:03:14;5.07;;;3.17;;
21432;SDS011;18592;49.708;10.900;2023-01-01T12:08:03;5.30;;;2.88;;
21432;SDS011;18592;49.708;10.900;2023-01-01T12:10:23;4.93;;;2.90;;
21432;SDS011;18592;49.708;10.900;2023-01-01T12:12:32;3.42;;;2.50;;
21432;SDS011;18592;49.708;10.900;2023-01-01T12:14:52;4.20;;;2.33;;
21432;SDS011;18592;49.708;10.900;2023-01-01T12:17:01;3.50;;;2.63;;
21432;SDS011;18592;49.708;10.900;2023-01-01T12:19:20;4.15;;;2.90;;
21432;SDS011;18592;49.708;10.900;2023-01-01T12:21:38;5.72;;;3.13;;
21432;SDS011;18592;49.708;10.900;2023-01-01T12:23:53;4.78;;;2.60;;
21432;SDS011;18592;49.708;10.900;2023-01-01T12:26:05;3.95;;;2.45;;
21432;SDS011;18592;49.708;10.900;2023-01-01T12:33:17;3.65;;;2.53;;
21432;SDS011;18592;49.708;10.900;2023-01-01T12:40:41;3.40;;;2.60;;
21432;SDS011;18592;49.708;10.900;2023-01-01T12:43:50;3.55;;;3.00;;
21432;SDS011;18592;49.708;10.900;2023-01-01T12:57:59;3.25;;;2.45;;
21432;SDS011;18592;49.708;10.900;2023-01-01T13:00:15;5.55;;;2.80;;
21432;SDS011;18592;49.708;10.900;2023-01-01T13:02:21;4.45;;;2.80;;
21432;SDS011;18592;49.708;10.900;2023-01-01T13:04:25;3.38;;;2.58;;
21432;SDS011;18592;49.708;10.900;2023-01-01T13:06:36;4.25;;;3.15;;
21432;SDS011;18592;49.708;10.900;2023-01-01T13:08:42;3.85;;;2.55;;
21432;SDS011;18592;49.708;10.900;2023-01-01T13:10:56;5.93;;;3.00;;
21432;SDS011;18592;49.708;10.900;2023-01-01T13:12:59;3.20;;;2.60;;
21432;SDS011;18592;49.708;10.900;2023-01-01T13:15:33;5.78;;;2.92;;
21432;SDS011;18592;49.708;10.900;2023-01-01T13:17:39;4.50;;;2.65;;
21432;SDS011;18592;49.708;10.900;2023-01-01T13:19:41;4.20;;;2.78;;
21432;SDS011;18592;49.708;10.900;2023-01-01T13:21:42;4.80;;;2.95;;
21432;SDS011;18592;49.708;10.900;2023-01-01T13:23:45;3.20;;;2.67;;
21432;SDS011;18592;49.708;10.900;2023-01-01T13:25:47;3.90;;;2.50;;
21432;SDS011;18592;49.708;10.900;2023-01-01T13:30:00;3.95;;;2.83;;
21432;SDS011;18592;49.708;10.900;2023-01-01T13:32:04;6.05;;;2.80;;
21432;SDS011;18592;49.708;10.900;2023-01-01T13:36:39;5.88;;;2.90;;